sensor_id;sensor_type;location;lat;lon;timestamp;temperature;humidity
573;DHT22;271;51.114;13.780;2023-03-01T00:02:27;-2.90;1.00
573;DHT22;271;51.114;13.780;2023-03-01T00:05:15;-2.90;1.00
573;DHT22;271;51.114;13.780;2023-03-01T00:08:03;-2.90;1.00
573;DHT22;271;51.114;13.780;2023-03-01T00:11:00;-3.00;1.00
573;DHT22;271;51.114;13.780;2023-03-01T00:13:51;-3.00;1.00
573;DHT22;271;51.114;13.780;2023-03-01T00:16:40;-2.90;1.00
573;DHT22;271;51.114;13.780;2023-03-01T00:19:29;-3.00;1.00
573;DHT22;271;51.114;13.780;2023-03-01T00:22:18;-3.00;1.00
573;DHT22;271;51.114;13.780;2023-03-01T00:25:07;-3.00;1.00
573;DHT22;271;51.114;13.780;2023-03-01T00:27:54;-3.00;1.00
573;DHT22;271;51.114;13.780;2023-03-01T00:30:43;-3.00;1.00
573;DHT22;271;51.114;13.780;2023-03-01T00:33:31;-3.10;1.00
573;DHT22;271;51.114;13.780;2023-03-01T00:36:19;-3.10;1.00
573;DHT22;271;51.114;13.780;2023-03-01T00:39:11;-3.00;1.00
573;DHT22;271;51.114;13.780;2023-03-01T00:41:59;-3.10;1.00
573;DHT22;271;51.114;13.780;2023-03-01T00:44:47;-3.10;1.00
573;DHT22;271;51.114;13.780;2023-03-01T00:47:36;-3.20;1.00
573;DHT22;271;51.114;13.780;2023-03-01T00:50:25;-3.20;1.00
573;DHT22;271;51.114;13.780;2023-03-01T00:53:12;-3.20;1.00
573;DHT22;271;51.114;13.780;2023-03-01T00:56:00;-3.30;1.00
573;DHT22;271;51.114;13.780;2023-03-01T00:58:48;-3.40;1.00
573;DHT22;271;51.114;13.780;2023-03-01T01:01:36;-3.40;1.00
573;DHT22;271;51.114;13.780;2023-03-01T01:04:25;-3.20;1.00
573;DHT22;271;51.114;13.780;2023-03-01T01:07:13;-3.30;1.00
573;DHT22;271;51.114;13.780;2023-03-01T01:10:01;-3.20;1.00
573;DHT22;271;51.114;13.780;2023-03-01T01:12:49;-3.40;1.00
573;DHT22;271;51.114;13.780;2023-03-01T01:15:36;-3.40;1.00
573;DHT22;271;51.114;13.780;2023-03-01T01:18:24;-3.40;1.00
573;DHT22;271;51.114;13.780;2023-03-01T01:21:14;-3.50;1.00
573;DHT22;271;51.114;13.780;2023-03-01T01:24:03;-3.50;1.00
573;DHT22;271;51.114;13.780;2023-03-01T01:26:51;-3.50;1.00
573;DHT22;271;51.114;13.780;2023-03-01T01:29:39;-3.50;1.00
573;DHT22;271;51.114;13.780;2023-03-01T01:32:28;-3.50;1.00
573;DHT22;271;51.114;13.780;2023-03-01T01:35:15;-3.50;1.00
573;DHT22;271;51.114;13.780;2023-03-01T01:38:04;-3.50;1.00
573;DHT22;271;51.114;13.780;2023-03-01T01:40:52;-3.50;1.00
573;DHT22;271;51.114;13.780;2023-03-01T01:43:42;-3.60;1.00
573;DHT22;271;51.114;13.780;2023-03-01T01:46:31;-3.60;1.00
573;DHT22;271;51.114;13.780;2023-03-01T01:49:25;-3.60;1.00
573;DHT22;271;51.114;13.780;2023-03-01T01:52:17;-3.60;1.00
573;DHT22;271;51.114;13.780;2023-03-01T01:55:10;-3.70;1.00
573;DHT22;271;51.114;13.780;2023-03-01T01:58:02;-3.70;1.00
573;DHT22;271;51.114;13.780;2023-03-01T02:00:50;-3.80;1.00
573;DHT22;271;51.114;13.780;2023-03-01T02:03:39;-3.80;1.00
573;DHT22;271;51.114;13.780;2023-03-01T02:06:31;-3.80;1.00
573;DHT22;271;51.114;13.780;2023-03-01T02:09:20;-4.00;1.00
573;DHT22;271;51.114;13.780;2023-03-01T02:12:10;-4.00;1.00
573;DHT22;271;51.114;13.780;2023-03-01T02:14:58;-4.00;1.00
573;DHT22;271;51.114;13.780;2023-03-01T02:17:46;-4.00;1.00
573;DHT22;271;51.114;13.780;2023-03-01T02:20:40;-4.00;1.00
573;DHT22;271;51.114;13.780;2023-03-01T02:23:31;-4.10;1.00
573;DHT22;271;51.114;13.780;2023-03-01T02:26:25;-4.10;1.00
573;DHT22;271;51.114;13.780;2023-03-01T02:29:18;-4.10;1.00
573;DHT22;271;51.114;13.780;2023-03-01T02:32:06;-4.10;1.00
573;DHT22;271;51.114;13.780;2023-03-01T02:34:54;-4.00;1.00
573;DHT22;271;51.114;13.780;2023-03-01T02:37:43;-4.00;1.00
573;DHT22;271;51.114;13.780;2023-03-01T02:40:34;-4.10;1.00
573;DHT22;271;51.114;13.780;2023-03-01T02:43:27;-4.10;1.00
573;DHT22;271;51.114;13.780;2023-03-01T02:46:20;-4.20;1.00
573;DHT22;271;51.114;13.780;2023-03-01T02:49:18;-4.10;1.00
573;DHT22;271;51.114;13.780;2023-03-01T02:52:37;-4.10;1.00
573;DHT22;271;51.114;13.780;2023-03-01T02:55:28;-4.20;1.00
573;DHT22;271;51.114;13.780;2023-03-01T02:58:15;-4.20;1.00
573;DHT22;271;51.114;13.780;2023-03-01T03:01:03;-4.30;1.00
573;DHT22;271;51.114;13.780;2023-03-01T03:03:52;-4.30;1.00
573;DHT22;271;51.114;13.780;2023-03-01T03:06:40;-4.30;1.00
573;DHT22;271;51.114;13.780;2023-03-01T03:09:27;-4.30;1.00
573;DHT22;271;51.114;13.780;2023-03-01T03:12:15;-4.40;1.00
573;DHT22;271;51.114;13.780;2023-03-01T03:15:04;-4.40;1.00
573;DHT22;271;51.114;13.780;2023-03-01T03:17:56;-4.40;1.00
573;DHT22;271;51.114;13.780;2023-03-01T03:20:45;-4.40;1.00
573;DHT22;271;51.114;13.780;2023-03-01T03:23:33;-4.40;1.00
573;DHT22;271;51.114;13.780;2023-03-01T03:26:21;-4.40;1.00
573;DHT22;271;51.114;13.780;2023-03-01T03:29:09;-4.40;1.00
573;DHT22;271;51.114;13.780;2023-03-01T03:31:57;-4.50;1.00
573;DHT22;271;51.114;13.780;2023-03-01T03:34:44;-4.50;1.00
573;DHT22;271;51.114;13.780;2023-03-01T03:37:33;-4.60;1.00
573;DHT22;271;51.114;13.780;2023-03-01T03:40:40;-4.60;1.00
573;DHT22;271;51.114;13.780;2023-03-01T03:43:28;-4.60;1.00
573;DHT22;271;51.114;13.780;2023-03-01T03:46:17;-4.60;1.00
573;DHT22;271;51.114;13.780;2023-03-01T03:49:05;-4.70;1.00
573;DHT22;271;51.114;13.780;2023-03-01T03:51:52;-4.70;1.00
573;DHT22;271;51.114;13.780;2023-03-01T03:54:42;-4.70;1.00
573;DHT22;271;51.114;13.780;2023-03-01T03:57:29;-4.70;1.00
573;DHT22;271;51.114;13.780;2023-03-01T04:00:18;-4.70;1.00
573;DHT22;271;51.114;13.780;2023-03-01T04:03:07;-4.80;1.00
573;DHT22;271;51.114;13.780;2023-03-01T04:05:57;-4.70;1.00
573;DHT22;271;51.114;13.780;2023-03-01T04:08:45;-4.80;1.00
573;DHT22;271;51.114;13.780;2023-03-01T04:11:34;-4.80;1.00
573;DHT22;271;51.114;13.780;2023-03-01T04:14:22;-4.90;1.00
573;DHT22;271;51.114;13.780;2023-03-01T04:17:09;-4.90;1.00
573;DHT22;271;51.114;13.780;2023-03-01T04:19:57;-4.90;1.00
573;DHT22;271;51.114;13.780;2023-03-01T04:22:45;-4.90;1.00
573;DHT22;271;51.114;13.780;2023-03-01T04:25:33;-4.90;1.00
573;DHT22;271;51.114;13.780;2023-03-01T04:28:24;-4.90;1.00
573;DHT22;271;51.114;13.780;2023-03-01T04:31:13;-4.90;1.00
573;DHT22;271;51.114;13.780;2023-03-01T04:34:02;-5.00;1.00
573;DHT22;271;51.114;13.780;2023-03-01T04:36:50;-4.90;1.00
573;DHT22;271;51.114;13.780;2023-03-01T04:39:37;-4.90;1.00
573;DHT22;271;51.114;13.780;2023-03-01T04:42:31;-4.90;1.00
573;DHT22;271;51.114;13.780;2023-03-01T04:45:20;-4.80;1.00
573;DHT22;271;51.114;13.780;2023-03-01T04:48:08;-4.90;1.00
573;DHT22;271;51.114;13.780;2023-03-01T04:50:56;-4.90;1.00
573;DHT22;271;51.114;13.780;2023-03-01T04:53:44;-5.00;1.00
573;DHT22;271;51.114;13.780;2023-03-01T04:56:32;-5.10;1.00
573;DHT22;271;51.114;13.780;2023-03-01T04:59:19;-5.00;1.00
573;DHT22;271;51.114;13.780;2023-03-01T05:02:10;-5.10;1.00
573;DHT22;271;51.114;13.780;2023-03-01T05:04:57;-5.10;1.00
573;DHT22;271;51.114;13.780;2023-03-01T05:07:45;-5.10;1.00
573;DHT22;271;51.114;13.780;2023-03-01T05:10:34;-5.10;1.00
573;DHT22;271;51.114;13.780;2023-03-01T05:13:23;-5.20;1.00
573;DHT22;271;51.114;13.780;2023-03-01T05:16:12;-5.10;1.00
573;DHT22;271;51.114;13.780;2023-03-01T05:19:02;-5.20;1.00
573;DHT22;271;51.114;13.780;2023-03-01T05:21:58;-5.20;1.00
573;DHT22;271;51.114;13.780;2023-03-01T05:24:51;-5.20;1.00
573;DHT22;271;51.114;13.780;2023-03-01T05:27:40;-5.20;1.00
573;DHT22;271;51.114;13.780;2023-03-01T05:30:27;-5.30;1.00
573;DHT22;271;51.114;13.780;2023-03-01T05:33:15;-5.30;1.00
573;DHT22;271;51.114;13.780;2023-03-01T05:36:06;-5.30;1.00
573;DHT22;271;51.114;13.780;2023-03-01T05:38:54;-5.30;1.00
573;DHT22;271;51.114;13.780;2023-03-01T05:41:42;-5.30;1.00
573;DHT22;271;51.114;13.780;2023-03-01T05:44:30;-5.40;1.00
573;DHT22;271;51.114;13.780;2023-03-01T05:47:17;-5.30;1.00
573;DHT22;271;51.114;13.780;2023-03-01T05:50:08;-5.30;1.00
573;DHT22;271;51.114;13.780;2023-03-01T05:53:02;-5.30;1.00
573;DHT22;271;51.114;13.780;2023-03-01T05:55:51;-5.30;1.00
573;DHT22;271;51.114;13.780;2023-03-01T05:58:39;-5.30;1.00
573;DHT22;271;51.114;13.780;2023-03-01T06:01:27;-5.30;1.00
573;DHT22;271;51.114;13.780;2023-03-01T06:04:15;-5.40;1.00
573;DHT22;271;51.114;13.780;2023-03-01T06:07:03;-5.50;1.00
573;DHT22;271;51.114;13.780;2023-03-01T06:09:52;-5.50;1.00
573;DHT22;271;51.114;13.780;2023-03-01T06:12:41;-5.50;1.00
573;DHT22;271;51.114;13.780;2023-03-01T06:15:29;-5.40;1.00
573;DHT22;271;51.114;13.780;2023-03-01T06:18:17;-5.40;1.00
573;DHT22;271;51.114;13.780;2023-03-01T06:21:06;-5.40;1.00
573;DHT22;271;51.114;13.780;2023-03-01T06:23:54;-5.50;1.00
573;DHT22;271;51.114;13.780;2023-03-01T06:26:43;-5.40;1.00
573;DHT22;271;51.114;13.780;2023-03-01T06:29:31;-5.30;1.00
573;DHT22;271;51.114;13.780;2023-03-01T06:32:18;-5.30;1.00
573;DHT22;271;51.114;13.780;2023-03-01T06:35:06;-5.30;1.00
573;DHT22;271;51.114;13.780;2023-03-01T06:37:55;-5.20;1.00
573;DHT22;271;51.114;13.780;2023-03-01T06:40:43;-5.10;1.00
573;DHT22;271;51.114;13.780;2023-03-01T06:43:32;-5.00;1.00
573;DHT22;271;51.114;13.780;2023-03-01T06:46:20;-4.90;1.00
573;DHT22;271;51.114;13.780;2023-03-01T06:49:07;-4.90;1.00
573;DHT22;271;51.114;13.780;2023-03-01T06:51:55;-4.90;1.00
573;DHT22;271;51.114;13.780;2023-03-01T06:54:43;-4.80;1.00
573;DHT22;271;51.114;13.780;2023-03-01T06:57:30;-4.70;1.00
573;DHT22;271;51.114;13.780;2023-03-01T07:00:21;-4.60;1.00
573;DHT22;271;51.114;13.780;2023-03-01T07:03:08;-4.50;1.00
573;DHT22;271;51.114;13.780;2023-03-01T07:05:56;-4.40;1.00
573;DHT22;271;51.114;13.780;2023-03-01T07:08:44;-4.30;1.00
573;DHT22;271;51.114;13.780;2023-03-01T07:11:31;-4.20;1.00
573;DHT22;271;51.114;13.780;2023-03-01T07:14:19;-4.00;1.00
573;DHT22;271;51.114;13.780;2023-03-01T07:17:08;-3.80;1.00
573;DHT22;271;51.114;13.780;2023-03-01T07:19:56;-3.70;1.00
573;DHT22;271;51.114;13.780;2023-03-01T07:22:44;-3.50;1.00
573;DHT22;271;51.114;13.780;2023-03-01T07:25:32;-3.40;1.00
573;DHT22;271;51.114;13.780;2023-03-01T07:28:19;-3.30;1.00
573;DHT22;271;51.114;13.780;2023-03-01T07:31:07;-3.10;1.00
573;DHT22;271;51.114;13.780;2023-03-01T07:33:57;-3.00;1.00
573;DHT22;271;51.114;13.780;2023-03-01T07:36:44;-3.00;1.00
573;DHT22;271;51.114;13.780;2023-03-01T07:39:32;-2.90;1.00
573;DHT22;271;51.114;13.780;2023-03-01T07:42:20;-2.80;1.00
573;DHT22;271;51.114;13.780;2023-03-01T07:45:08;-2.60;1.00
573;DHT22;271;51.114;13.780;2023-03-01T07:47:56;-2.50;1.00
573;DHT22;271;51.114;13.780;2023-03-01T07:50:45;-2.40;1.00
573;DHT22;271;51.114;13.780;2023-03-01T07:53:33;-2.30;1.00
573;DHT22;271;51.114;13.780;2023-03-01T07:56:21;-2.30;1.00
573;DHT22;271;51.114;13.780;2023-03-01T07:59:09;-2.20;1.00
573;DHT22;271;51.114;13.780;2023-03-01T08:01:57;-2.00;1.00
573;DHT22;271;51.114;13.780;2023-03-01T08:04:44;-2.00;1.00
573;DHT22;271;51.114;13.780;2023-03-01T08:07:34;-1.90;1.00
573;DHT22;271;51.114;13.780;2023-03-01T08:10:22;-1.90;1.00
573;DHT22;271;51.114;13.780;2023-03-01T08:13:10;-1.70;1.00
573;DHT22;271;51.114;13.780;2023-03-01T08:16:01;-1.60;1.00
573;DHT22;271;51.114;13.780;2023-03-01T08:18:48;-1.50;1.00
573;DHT22;271;51.114;13.780;2023-03-01T08:21:36;-1.50;1.00
573;DHT22;271;51.114;13.780;2023-03-01T08:24:25;-1.50;1.00
573;DHT22;271;51.114;13.780;2023-03-01T08:27:15;-1.40;1.00
573;DHT22;271;51.114;13.780;2023-03-01T08:30:03;-1.30;1.00
573;DHT22;271;51.114;13.780;2023-03-01T08:32:51;-1.10;1.00
573;DHT22;271;51.114;13.780;2023-03-01T08:35:39;-0.90;1.00
573;DHT22;271;51.114;13.780;2023-03-01T08:38:27;-0.70;1.00
573;DHT22;271;51.114;13.780;2023-03-01T08:41:16;-0.50;1.00
573;DHT22;271;51.114;13.780;2023-03-01T08:44:04;-0.10;1.00
573;DHT22;271;51.114;13.780;2023-03-01T08:46:52;0.40;1.00
573;DHT22;271;51.114;13.780;2023-03-01T08:49:41;0.90;1.00
573;DHT22;271;51.114;13.780;2023-03-01T08:52:29;1.40;1.00
573;DHT22;271;51.114;13.780;2023-03-01T08:55:17;1.80;1.00
573;DHT22;271;51.114;13.780;2023-03-01T08:58:06;2.20;1.00
573;DHT22;271;51.114;13.780;2023-03-01T09:00:54;2.50;1.00
573;DHT22;271;51.114;13.780;2023-03-01T09:03:43;2.70;1.00
573;DHT22;271;51.114;13.780;2023-03-01T09:06:31;3.00;1.00
573;DHT22;271;51.114;13.780;2023-03-01T09:09:19;3.20;1.00
573;DHT22;271;51.114;13.780;2023-03-01T09:12:07;3.30;1.00
573;DHT22;271;51.114;13.780;2023-03-01T09:14:56;3.40;1.00
573;DHT22;271;51.114;13.780;2023-03-01T09:17:46;3.80;1.00
573;DHT22;271;51.114;13.780;2023-03-01T09:27:12;4.80;1.00
573;DHT22;271;51.114;13.780;2023-03-01T09:30:02;4.90;1.00
573;DHT22;271;51.114;13.780;2023-03-01T09:32:56;5.10;1.00
573;DHT22;271;51.114;13.780;2023-03-01T09:35:47;5.40;1.00
573;DHT22;271;51.114;13.780;2023-03-01T09:38:42;5.20;1.00
573;DHT22;271;51.114;13.780;2023-03-01T09:41:39;5.40;1.00
573;DHT22;271;51.114;13.780;2023-03-01T09:44:32;5.50;1.00
573;DHT22;271;51.114;13.780;2023-03-01T09:47:26;5.80;1.00
573;DHT22;271;51.114;13.780;2023-03-01T09:50:16;6.10;1.00
573;DHT22;271;51.114;13.780;2023-03-01T09:53:07;6.10;1.00
573;DHT22;271;51.114;13.780;2023-03-01T09:56:01;6.30;1.00
573;DHT22;271;51.114;13.780;2023-03-01T09:58:57;6.30;1.00
573;DHT22;271;51.114;13.780;2023-03-01T10:01:52;6.70;1.00
573;DHT22;271;51.114;13.780;2023-03-01T10:04:46;7.10;1.00
573;DHT22;271;51.114;13.780;2023-03-01T10:07:42;7.40;1.00
573;DHT22;271;51.114;13.780;2023-03-01T10:34:08;8.70;1.00
573;DHT22;271;51.114;13.780;2023-03-01T10:38:12;9.40;1.00
573;DHT22;271;51.114;13.780;2023-03-01T10:41:58;9.90;1.00
573;DHT22;271;51.114;13.780;2023-03-01T10:52:55;8.80;1.00
573;DHT22;271;51.114;13.780;2023-03-01T11:05:50;8.40;1.00
573;DHT22;271;51.114;13.780;2023-03-01T11:07:21;8.40;1.00
573;DHT22;271;51.114;13.780;2023-03-01T11:21:39;8.00;1.00
573;DHT22;271;51.114;13.780;2023-03-01T11:25:15;8.20;1.00
573;DHT22;271;51.114;13.780;2023-03-01T11:28:19;8.30;1.00
573;DHT22;271;51.114;13.780;2023-03-01T11:31:10;8.30;1.00
573;DHT22;271;51.114;13.780;2023-03-01T11:34:05;8.00;1.00
573;DHT22;271;51.114;13.780;2023-03-01T11:36:59;7.80;1.00
573;DHT22;271;51.114;13.780;2023-03-01T11:39:54;7.60;1.00
573;DHT22;271;51.114;13.780;2023-03-01T11:42:53;7.70;1.00
573;DHT22;271;51.114;13.780;2023-03-01T11:49:02;7.50;1.00
573;DHT22;271;51.114;13.780;2023-03-01T11:52:02;7.50;1.00
573;DHT22;271;51.114;13.780;2023-03-01T11:55:12;7.70;1.00
573;DHT22;271;51.114;13.780;2023-03-01T11:58:26;7.40;1.00
573;DHT22;271;51.114;13.780;2023-03-01T12:01:32;7.20;1.00
573;DHT22;271;51.114;13.780;2023-03-01T12:04:49;6.90;1.00
573;DHT22;271;51.114;13.780;2023-03-01T12:07:46;7.00;1.00
573;DHT22;271;51.114;13.780;2023-03-01T12:10:47;7.30;1.00
573;DHT22;271;51.114;13.780;2023-03-01T12:17:20;7.40;1.00
573;DHT22;271;51.114;13.780;2023-03-01T12:20:20;7.40;1.00
573;DHT22;271;51.114;13.780;2023-03-01T12:23:25;7.30;1.00
573;DHT22;271;51.114;13.780;2023-03-01T12:26:31;7.00;1.00
573;DHT22;271;51.114;13.780;2023-03-01T12:29:25;6.80;1.00
573;DHT22;271;51.114;13.780;2023-03-01T12:36:39;7.00;1.00
573;DHT22;271;51.114;13.780;2023-03-01T12:39:58;7.10;1.00
573;DHT22;271;51.114;13.780;2023-03-01T12:43:31;7.60;1.00
573;DHT22;271;51.114;13.780;2023-03-01T12:46:58;8.00;1.00
573;DHT22;271;51.114;13.780;2023-03-01T12:49:59;7.60;1.00
573;DHT22;271;51.114;13.780;2023-03-01T12:52:56;7.40;1.00
573;DHT22;271;51.114;13.780;2023-03-01T12:56:07;7.20;1.00
573;DHT22;271;51.114;13.780;2023-03-01T12:59:39;7.20;1.00
573;DHT22;271;51.114;13.780;2023-03-01T13:02:41;7.00;1.00
573;DHT22;271;51.114;13.780;2023-03-01T13:06:06;7.10;1.00
573;DHT22;271;51.114;13.780;2023-03-01T13:12:56;7.50;1.00
573;DHT22;271;51.114;13.780;2023-03-01T13:22:47;7.30;1.00
573;DHT22;271;51.114;13.780;2023-03-01T13:26:00;7.10;1.00
573;DHT22;271;51.114;13.780;2023-03-01T13:28:54;7.10;1.00
573;DHT22;271;51.114;13.780;2023-03-01T13:31:58;7.20;1.00
573;DHT22;271;51.114;13.780;2023-03-01T13:34:54;7.30;1.00
573;DHT22;271;51.114;13.780;2023-03-01T13:37:43;7.60;1.00
573;DHT22;271;51.114;13.780;2023-03-01T13:40:59;7.70;1.00
573;DHT22;271;51.114;13.780;2023-03-01T13:43:48;7.80;1.00
573;DHT22;271;51.114;13.780;2023-03-01T13:46:37;8.30;1.00
573;DHT22;271;51.114;13.780;2023-03-01T13:49:28;8.40;1.00
573;DHT22;271;51.114;13.780;2023-03-01T13:52:32;8.40;1.00
573;DHT22;271;51.114;13.780;2023-03-01T13:55:26;8.30;1.00
573;DHT22;271;51.114;13.780;2023-03-01T13:58:18;8.20;1.00
573;DHT22;271;51.114;13.780;2023-03-01T14:01:18;8.20;1.00
573;DHT22;271;51.114;13.780;2023-03-01T14:04:20;8.20;1.00
573;DHT22;271;51.114;13.780;2023-03-01T14:07:11;8.20;1.00
573;DHT22;271;51.114;13.780;2023-03-01T14:10:02;8.20;1.00
573;DHT22;271;51.114;13.780;2023-03-01T14:12:53;8.00;1.00
573;DHT22;271;51.114;13.780;2023-03-01T14:15:46;8.00;1.00
573;DHT22;271;51.114;13.780;2023-03-01T14:18:42;8.00;1.00
573;DHT22;271;51.114;13.780;2023-03-01T14:21:34;7.80;1.00
573;DHT22;271;51.114;13.780;2023-03-01T14:24:23;7.40;1.00
573;DHT22;271;51.114;13.780;2023-03-01T14:27:11;6.90;1.00
573;DHT22;271;51.114;13.780;2023-03-01T14:30:02;6.70;1.00
573;DHT22;271;51.114;13.780;2023-03-01T14:32:53;6.60;1.00
573;DHT22;271;51.114;13.780;2023-03-01T14:35:41;6.40;1.00
573;DHT22;271;51.114;13.780;2023-03-01T14:38:36;6.40;1.00
573;DHT22;271;51.114;13.780;2023-03-01T14:41:27;6.30;1.00
573;DHT22;271;51.114;13.780;2023-03-01T14:44:19;6.10;1.00
573;DHT22;271;51.114;13.780;2023-03-01T14:47:12;5.90;1.00
573;DHT22;271;51.114;13.780;2023-03-01T14:50:03;5.90;1.00
573;DHT22;271;51.114;13.780;2023-03-01T14:52:54;5.80;1.00
573;DHT22;271;51.114;13.780;2023-03-01T14:55:46;5.80;1.00
573;DHT22;271;51.114;13.780;2023-03-01T14:58:35;5.60;1.00
573;DHT22;271;51.114;13.780;2023-03-01T15:01:22;5.50;1.00
573;DHT22;271;51.114;13.780;2023-03-01T15:04:12;5.50;1.00
573;DHT22;271;51.114;13.780;2023-03-01T15:07:01;5.40;1.00
573;DHT22;271;51.114;13.780;2023-03-01T15:09:51;5.40;1.00
573;DHT22;271;51.114;13.780;2023-03-01T15:12:41;5.40;1.00
573;DHT22;271;51.114;13.780;2023-03-01T15:15:34;5.40;1.00
573;DHT22;271;51.114;13.780;2023-03-01T15:18:26;5.50;1.00
573;DHT22;271;51.114;13.780;2023-03-01T15:21:17;5.50;1.00
573;DHT22;271;51.114;13.780;2023-03-01T15:24:08;5.50;1.00
573;DHT22;271;51.114;13.780;2023-03-01T15:27:14;5.50;1.00
573;DHT22;271;51.114;13.780;2023-03-01T15:30:13;5.40;1.00
573;DHT22;271;51.114;13.780;2023-03-01T15:33:20;5.40;1.00
573;DHT22;271;51.114;13.780;2023-03-01T15:36:39;5.50;1.00
573;DHT22;271;51.114;13.780;2023-03-01T15:39:37;5.40;1.00
573;DHT22;271;51.114;13.780;2023-03-01T15:42:37;5.40;1.00
573;DHT22;271;51.114;13.780;2023-03-01T15:45:28;5.40;1.00
573;DHT22;271;51.114;13.780;2023-03-01T15:48:19;5.40;1.00
573;DHT22;271;51.114;13.780;2023-03-01T15:51:12;5.40;1.00
573;DHT22;271;51.114;13.780;2023-03-01T15:54:05;5.40;1.00
573;DHT22;271;51.114;13.780;2023-03-01T15:56:53;5.30;1.00
573;DHT22;271;51.114;13.780;2023-03-01T15:59:41;5.20;1.00
573;DHT22;271;51.114;13.780;2023-03-01T16:02:32;5.20;1.00
573;DHT22;271;51.114;13.780;2023-03-01T16:05:22;5.20;1.00
573;DHT22;271;51.114;13.780;2023-03-01T16:08:11;5.20;1.00
573;DHT22;271;51.114;13.780;2023-03-01T16:10:58;5.20;1.00
573;DHT22;271;51.114;13.780;2023-03-01T16:13:49;5.00;1.00
573;DHT22;271;51.114;13.780;2023-03-01T16:16:37;4.90;1.00
573;DHT22;271;51.114;13.780;2023-03-01T16:19:26;5.00;1.00
573;DHT22;271;51.114;13.780;2023-03-01T16:22:14;4.80;1.00
573;DHT22;271;51.114;13.780;2023-03-01T16:25:02;4.80;1.00
573;DHT22;271;51.114;13.780;2023-03-01T16:27:50;4.60;1.00
573;DHT22;271;51.114;13.780;2023-03-01T16:30:39;4.50;1.00
573;DHT22;271;51.114;13.780;2023-03-01T16:33:26;4.40;1.00
573;DHT22;271;51.114;13.780;2023-03-01T16:36:17;4.30;1.00
573;DHT22;271;51.114;13.780;2023-03-01T16:39:05;4.10;1.00
573;DHT22;271;51.114;13.780;2023-03-01T16:41:53;4.00;1.00
573;DHT22;271;51.114;13.780;2023-03-01T16:44:41;3.90;1.00
573;DHT22;271;51.114;13.780;2023-03-01T16:47:29;3.80;1.00
573;DHT22;271;51.114;13.780;2023-03-01T16:50:17;3.70;1.00
573;DHT22;271;51.114;13.780;2023-03-01T16:53:06;3.50;1.00
573;DHT22;271;51.114;13.780;2023-03-01T16:55:55;3.40;1.00
573;DHT22;271;51.114;13.780;2023-03-01T16:58:43;3.20;1.00
573;DHT22;271;51.114;13.780;2023-03-01T17:01:31;3.20;1.00
573;DHT22;271;51.114;13.780;2023-03-01T17:04:23;3.00;1.00
573;DHT22;271;51.114;13.780;2023-03-01T17:07:11;3.00;1.00
573;DHT22;271;51.114;13.780;2023-03-01T17:10:02;2.80;1.00
573;DHT22;271;51.114;13.780;2023-03-01T17:12:50;2.70;1.00
573;DHT22;271;51.114;13.780;2023-03-01T17:15:39;2.60;1.00
573;DHT22;271;51.114;13.780;2023-03-01T17:18:27;2.50;1.00
573;DHT22;271;51.114;13.780;2023-03-01T17:21:17;2.40;1.00
573;DHT22;271;51.114;13.780;2023-03-01T17:24:05;2.30;1.00
573;DHT22;271;51.114;13.780;2023-03-01T17:26:54;2.30;1.00
573;DHT22;271;51.114;13.780;2023-03-01T17:29:42;2.20;1.00
573;DHT22;271;51.114;13.780;2023-03-01T17:32:31;2.10;1.00
573;DHT22;271;51.114;13.780;2023-03-01T17:35:18;2.00;1.00
573;DHT22;271;51.114;13.780;2023-03-01T17:38:06;2.00;1.00
573;DHT22;271;51.114;13.780;2023-03-01T17:41:00;1.90;1.00
573;DHT22;271;51.114;13.780;2023-03-01T17:43:50;1.80;1.00
573;DHT22;271;51.114;13.780;2023-03-01T17:46:37;1.70;1.00
573;DHT22;271;51.114;13.780;2023-03-01T17:49:25;1.60;1.00
573;DHT22;271;51.114;13.780;2023-03-01T17:52:13;1.60;1.00
573;DHT22;271;51.114;13.780;2023-03-01T17:55:00;1.50;1.00
573;DHT22;271;51.114;13.780;2023-03-01T17:57:48;1.50;1.00
573;DHT22;271;51.114;13.780;2023-03-01T18:00:37;1.40;1.00
573;DHT22;271;51.114;13.780;2023-03-01T18:03:25;1.30;1.00
573;DHT22;271;51.114;13.780;2023-03-01T18:06:14;1.20;1.00
573;DHT22;271;51.114;13.780;2023-03-01T18:09:03;1.10;1.00
573;DHT22;271;51.114;13.780;2023-03-01T18:11:51;1.10;1.00
573;DHT22;271;51.114;13.780;2023-03-01T18:14:39;1.10;1.00
573;DHT22;271;51.114;13.780;2023-03-01T18:17:28;1.00;1.00
573;DHT22;271;51.114;13.780;2023-03-01T18:20:16;1.00;1.00
573;DHT22;271;51.114;13.780;2023-03-01T18:23:04;0.80;1.00
573;DHT22;271;51.114;13.780;2023-03-01T18:25:57;0.80;1.00
573;DHT22;271;51.114;13.780;2023-03-01T18:28:45;0.80;1.00
573;DHT22;271;51.114;13.780;2023-03-01T18:31:33;0.80;1.00
573;DHT22;271;51.114;13.780;2023-03-01T18:34:22;0.80;1.00
573;DHT22;271;51.114;13.780;2023-03-01T18:37:10;0.60;1.00
573;DHT22;271;51.114;13.780;2023-03-01T18:39:58;0.60;1.00
573;DHT22;271;51.114;13.780;2023-03-01T18:42:46;0.70;1.00
573;DHT22;271;51.114;13.780;2023-03-01T18:45:34;0.50;1.00
573;DHT22;271;51.114;13.780;2023-03-01T18:48:22;0.50;1.00
573;DHT22;271;51.114;13.780;2023-03-01T18:51:13;0.40;1.00
573;DHT22;271;51.114;13.780;2023-03-01T18:54:01;0.50;1.00
573;DHT22;271;51.114;13.780;2023-03-01T18:56:48;0.50;1.00
573;DHT22;271;51.114;13.780;2023-03-01T18:59:36;0.40;1.00
573;DHT22;271;51.114;13.780;2023-03-01T19:02:24;0.40;1.00
573;DHT22;271;51.114;13.780;2023-03-01T19:05:13;0.20;1.00
573;DHT22;271;51.114;13.780;2023-03-01T19:08:04;0.10;1.00
573;DHT22;271;51.114;13.780;2023-03-01T19:10:55;0.20;1.00
573;DHT22;271;51.114;13.780;2023-03-01T19:13:44;0.10;1.00
573;DHT22;271;51.114;13.780;2023-03-01T19:16:33;0.10;1.00
573;DHT22;271;51.114;13.780;2023-03-01T19:19:21;0.00;1.00
573;DHT22;271;51.114;13.780;2023-03-01T19:22:08;0.00;1.00
573;DHT22;271;51.114;13.780;2023-03-01T19:24:57;0.10;1.00
573;DHT22;271;51.114;13.780;2023-03-01T19:27:45;0.10;1.00
573;DHT22;271;51.114;13.780;2023-03-01T19:30:34;0.00;1.00
573;DHT22;271;51.114;13.780;2023-03-01T19:33:22;-0.10;1.00
573;DHT22;271;51.114;13.780;2023-03-01T19:36:11;-0.10;1.00
573;DHT22;271;51.114;13.780;2023-03-01T19:38:59;-0.10;1.00
573;DHT22;271;51.114;13.780;2023-03-01T19:41:48;-0.20;1.00
573;DHT22;271;51.114;13.780;2023-03-01T19:44:36;-0.10;1.00
573;DHT22;271;51.114;13.780;2023-03-01T19:47:24;-0.10;1.00
573;DHT22;271;51.114;13.780;2023-03-01T19:50:12;0.00;1.00
573;DHT22;271;51.114;13.780;2023-03-01T19:53:00;0.00;1.00
573;DHT22;271;51.114;13.780;2023-03-01T19:55:48;-0.10;1.00
573;DHT22;271;51.114;13.780;2023-03-01T19:58:39;-0.10;1.00
573;DHT22;271;51.114;13.780;2023-03-01T20:01:29;-0.10;1.00
573;DHT22;271;51.114;13.780;2023-03-01T20:04:18;-0.10;1.00
573;DHT22;271;51.114;13.780;2023-03-01T20:07:06;-0.20;1.00
573;DHT22;271;51.114;13.780;2023-03-01T20:09:53;-0.30;1.00
573;DHT22;271;51.114;13.780;2023-03-01T20:12:41;-0.30;1.00
573;DHT22;271;51.114;13.780;2023-03-01T20:15:31;-0.40;1.00
573;DHT22;271;51.114;13.780;2023-03-01T20:18:18;-0.30;1.00
573;DHT22;271;51.114;13.780;2023-03-01T20:21:06;-0.30;1.00
573;DHT22;271;51.114;13.780;2023-03-01T20:23:54;-0.40;1.00
573;DHT22;271;51.114;13.780;2023-03-01T20:26:42;-0.40;1.00
573;DHT22;271;51.114;13.780;2023-03-01T20:29:29;-0.30;1.00
573;DHT22;271;51.114;13.780;2023-03-01T20:32:19;-0.30;1.00
573;DHT22;271;51.114;13.780;2023-03-01T20:35:07;-0.20;1.00
573;DHT22;271;51.114;13.780;2023-03-01T20:37:55;-0.30;1.00
573;DHT22;271;51.114;13.780;2023-03-01T20:40:43;-0.30;1.00
573;DHT22;271;51.114;13.780;2023-03-01T20:43:31;-0.30;1.00
573;DHT22;271;51.114;13.780;2023-03-01T20:46:19;-0.30;1.00